createdAt,value
2023-04-23T00:01:19.336Z,4.00
2023-04-23T00:03:47.303Z,6.00
2023-04-23T00:06:15.049Z,6.50
2023-04-23T00:08:42.664Z,11.00
2023-04-23T00:11:10.927Z,12.00
2023-04-23T00:13:38.582Z,12.00
2023-04-23T00:16:06.190Z,7.00
2023-04-23T00:18:33.908Z,8.00
2023-04-23T00:21:01.663Z,10.00
2023-04-23T00:23:29.671Z,11.00
2023-04-23T00:25:57.789Z,6.00
2023-04-23T00:28:25.443Z,9.00
2023-04-23T00:30:53.097Z,11.00
2023-04-23T00:33:20.824Z,12.00
2023-04-23T00:35:49.110Z,12.00
2023-04-23T00:38:16.929Z,12.25
2023-04-23T00:40:44.646Z,11.00
2023-04-23T00:43:12.319Z,11.00
2023-04-23T00:45:39.948Z,11.00
2023-04-23T00:48:09.238Z,10.50
2023-04-23T00:50:37.397Z,14.50
2023-04-23T00:53:04.985Z,9.25
2023-04-23T00:55:32.700Z,13.00
2023-04-23T00:58:00.912Z,12.25
2023-04-23T01:00:28.906Z,9.50
2023-04-23T01:02:58.483Z,12.50
2023-04-23T01:05:26.303Z,6.25
2023-04-23T01:07:53.929Z,15.00
2023-04-23T01:10:22.027Z,8.75
2023-04-23T01:12:50.228Z,11.00
2023-04-23T01:15:18.021Z,5.00
2023-04-23T01:17:45.696Z,11.50
2023-04-23T01:20:13.315Z,9.00
2023-04-23T01:22:40.893Z,2.00
2023-04-23T01:25:09.514Z,12.00
2023-04-23T01:27:37.392Z,11.75
2023-04-23T01:30:06.122Z,13.50
2023-04-23T01:32:33.778Z,12.50
2023-04-23T01:35:01.431Z,9.75
2023-04-23T01:37:29.646Z,11.00
2023-04-23T01:39:57.342Z,9.25
2023-04-23T01:42:24.991Z,9.25
2023-04-23T01:44:52.593Z,13.00
2023-04-23T01:47:20.271Z,12.00
2023-04-23T01:49:48.180Z,14.00
2023-04-23T01:52:15.812Z,8.75
2023-04-23T01:54:44.136Z,12.00
2023-04-23T01:57:11.857Z,9.25
2023-04-23T01:59:39.512Z,15.00
2023-04-23T02:02:11.199Z,11.00
2023-04-23T02:04:39.063Z,12.00
2023-04-23T02:07:06.898Z,10.25
2023-04-23T02:09:34.647Z,6.25
2023-04-23T02:12:02.353Z,15.00
2023-04-23T02:14:29.970Z,9.00
2023-04-23T02:16:57.989Z,7.00
2023-04-23T02:19:25.562Z,10.50
2023-04-23T02:21:53.159Z,10.50
2023-04-23T02:24:20.763Z,10.00
2023-04-23T02:26:49.374Z,12.00
2023-04-23T02:29:16.961Z,10.00
2023-04-23T02:31:44.672Z,12.00
2023-04-23T02:34:12.308Z,9.50
2023-04-23T02:36:39.926Z,8.00
2023-04-23T02:39:12.765Z,9.25
2023-04-23T02:41:40.397Z,9.25
2023-04-23T02:44:08.026Z,8.25
2023-04-23T02:46:37.484Z,9.50
2023-04-23T02:49:05.128Z,7.50
2023-04-23T02:51:33.006Z,9.75
2023-04-23T02:54:00.922Z,9.50
2023-04-23T02:56:28.479Z,12.25
2023-04-23T02:58:56.006Z,9.00
2023-04-23T03:01:23.672Z,9.00
2023-04-23T03:03:51.837Z,6.00
2023-04-23T03:06:19.546Z,10.00
2023-04-23T03:08:47.202Z,7.75
2023-04-23T03:11:14.734Z,11.00
2023-04-23T03:13:42.383Z,6.00
2023-04-23T03:16:10.275Z,9.25
2023-04-23T03:18:37.947Z,4.00
2023-04-23T03:21:06.032Z,10.00
2023-04-23T03:23:33.618Z,2.00
2023-04-23T03:26:01.231Z,9.50
2023-04-23T03:28:29.113Z,6.25
2023-04-23T03:30:56.777Z,6.25
2023-04-23T03:33:24.339Z,9.50
2023-04-23T03:35:51.909Z,9.50
2023-04-23T03:38:19.474Z,5.00
2023-04-23T03:40:47.606Z,11.00
2023-04-23T03:43:15.683Z,9.00
2023-04-23T03:45:43.415Z,9.25
2023-04-23T03:48:11.051Z,7.50
2023-04-23T03:50:40.574Z,9.50
2023-04-23T03:53:10.406Z,12.00
2023-04-23T03:55:37.994Z,6.25
2023-04-23T03:58:05.574Z,8.50
2023-04-23T04:00:33.216Z,8.00
2023-04-23T04:03:02.329Z,10.50
2023-04-23T04:05:31.485Z,5.00
2023-04-23T04:07:59.123Z,9.75
2023-04-23T04:10:26.870Z,9.00
2023-04-23T04:12:55.415Z,7.00
2023-04-23T04:15:23.010Z,7.00
2023-04-23T04:17:51.206Z,9.00
2023-04-23T04:20:18.891Z,6.50
2023-04-23T04:22:46.933Z,9.50
2023-04-23T04:25:14.501Z,3.25
2023-04-23T04:27:43.813Z,4.00
2023-04-23T04:30:11.961Z,2.50
2023-04-23T04:32:40.621Z,7.00
2023-04-23T04:35:09.003Z,7.00
2023-04-23T04:37:36.623Z,3.75
2023-04-23T04:40:05.184Z,6.00
2023-04-23T04:42:32.992Z,7.00
2023-04-23T04:45:00.947Z,9.00
2023-04-23T04:47:28.515Z,4.00
2023-04-23T04:49:57.942Z,12.50
2023-04-23T04:52:25.682Z,10.00
2023-04-23T04:54:53.583Z,6.25
2023-04-23T04:57:22.975Z,8.50
2023-04-23T04:59:50.576Z,4.00
2023-04-23T05:02:18.242Z,8.00
2023-04-23T05:04:45.875Z,7.00
2023-04-23T05:07:13.800Z,8.00
2023-04-23T05:09:42.930Z,9.75
2023-04-23T05:12:12.408Z,1.00
2023-04-23T05:14:40.364Z,12.00
2023-04-23T05:17:08.141Z,9.00
2023-04-23T05:19:36.062Z,8.50
2023-04-23T05:22:04.018Z,10.00
2023-04-23T05:24:31.602Z,10.00
2023-04-23T05:26:59.175Z,10.00
2023-04-23T05:29:26.971Z,9.25
2023-04-23T05:31:55.156Z,4.50
2023-04-23T05:34:22.789Z,9.00
2023-04-23T05:36:50.413Z,6.00
2023-04-23T05:39:17.972Z,6.25
2023-04-23T05:41:45.536Z,7.50
2023-04-23T05:44:13.769Z,7.00
2023-04-23T05:46:41.338Z,9.50
2023-04-23T05:49:08.863Z,10.00
2023-04-23T05:51:36.498Z,6.50
2023-04-23T05:54:04.068Z,5.50
2023-04-23T05:56:32.873Z,7.00
2023-04-23T05:59:00.475Z,8.50
2023-04-23T06:01:28.838Z,9.25
2023-04-23T06:03:56.672Z,10.00
2023-04-23T06:06:24.474Z,10.00
2023-04-23T06:08:52.738Z,8.00
2023-04-23T06:11:21.426Z,9.00
2023-04-23T06:13:49.016Z,12.50
2023-04-23T06:16:16.642Z,6.50
2023-04-23T06:18:44.663Z,7.00
2023-04-23T06:21:13.091Z,8.50
2023-04-23T06:23:40.721Z,10.50
2023-04-23T06:26:08.354Z,6.25
2023-04-23T06:28:35.978Z,6.00
2023-04-23T06:31:03.993Z,6.00
2023-04-23T06:33:32.224Z,9.75
2023-04-23T06:35:59.987Z,8.00
2023-04-23T06:38:27.695Z,9.25
2023-04-23T06:40:55.825Z,6.00
2023-04-23T06:43:23.473Z,9.00
2023-04-23T06:45:51.302Z,8.75
2023-04-23T06:48:19.001Z,8.00
2023-04-23T06:50:47.714Z,7.00
2023-04-23T06:53:15.400Z,5.00
2023-04-23T06:55:43.040Z,4.00
2023-04-23T06:58:13.603Z,9.00
2023-04-23T07:00:41.930Z,9.00
2023-04-23T07:03:09.717Z,8.00
2023-04-23T07:05:37.538Z,9.25
2023-04-23T07:08:05.852Z,8.00
2023-04-23T07:10:34.366Z,7.75
2023-04-23T07:13:02.069Z,7.00
2023-04-23T07:15:29.821Z,9.00
2023-04-23T07:17:57.579Z,9.00
2023-04-23T07:20:25.363Z,6.00
2023-04-23T07:22:53.798Z,7.00
2023-04-23T07:25:22.729Z,7.00
2023-04-23T07:27:50.557Z,8.00
2023-04-23T07:30:18.223Z,7.00
2023-04-23T07:32:45.894Z,8.00
2023-04-23T07:35:14.246Z,7.00
2023-04-23T07:37:41.916Z,5.00
2023-04-23T07:40:09.610Z,8.00
2023-04-23T07:42:37.783Z,7.50
2023-04-23T07:45:06.205Z,7.00
2023-04-23T07:47:36.225Z,6.50
2023-04-23T07:50:04.056Z,9.00
2023-04-23T07:52:31.706Z,9.00
2023-04-23T07:54:59.498Z,6.25
2023-04-23T07:57:27.266Z,6.50
2023-04-23T07:59:54.928Z,6.75
2023-04-23T08:02:26.323Z,4.00
2023-04-23T08:04:54.379Z,6.00
2023-04-23T08:07:22.373Z,7.00
2023-04-23T08:09:50.707Z,8.50
2023-04-23T08:12:19.369Z,7.00
2023-04-23T08:14:47.639Z,6.25
2023-04-23T08:17:15.313Z,7.00
2023-04-23T08:19:43.352Z,7.00
2023-04-23T08:22:11.733Z,9.25
2023-04-23T08:24:39.756Z,6.00
2023-04-23T08:27:07.928Z,9.00
2023-04-23T08:29:35.869Z,10.00
2023-04-23T08:32:04.026Z,7.00
2023-04-23T08:34:32.349Z,6.00
2023-04-23T08:37:01.649Z,9.75
2023-04-23T08:39:30.825Z,9.50
2023-04-23T08:41:58.634Z,8.50
2023-04-23T08:44:26.446Z,9.25
2023-04-23T08:46:54.334Z,7.50
2023-04-23T08:49:22.610Z,7.00
2023-04-23T08:51:50.255Z,6.20
2023-04-23T08:54:18.439Z,6.00
2023-04-23T08:56:46.268Z,7.20
2023-04-23T08:59:14.063Z,5.20
2023-04-23T09:01:42.511Z,3.80
2023-04-23T09:04:10.464Z,6.20
2023-04-23T09:06:38.284Z,4.00
2023-04-23T09:09:07.440Z,4.00
2023-04-23T09:11:35.499Z,6.00
2023-04-23T09:14:03.442Z,4.80
2023-04-23T09:16:31.676Z,4.00
2023-04-23T09:18:59.582Z,4.00
2023-04-23T09:21:27.305Z,5.20
2023-04-23T09:23:55.196Z,4.80
2023-04-23T09:26:23.692Z,4.80
2023-04-23T09:28:51.873Z,4.00
2023-04-23T09:31:19.662Z,3.00
2023-04-23T09:33:47.546Z,3.00
2023-04-23T09:36:15.377Z,4.00
2023-04-23T09:38:45.037Z,4.00
2023-04-23T09:41:12.803Z,4.00
2023-04-23T09:43:40.627Z,4.00
2023-04-23T09:46:08.510Z,3.60
2023-04-23T09:48:36.358Z,3.20
2023-04-23T09:51:04.580Z,4.80
2023-04-23T09:53:32.339Z,4.00
2023-04-23T09:56:00.134Z,2.20
2023-04-23T09:58:29.003Z,1.00
2023-04-23T10:00:56.978Z,1.60
2023-04-23T10:03:25.284Z,2.80
2023-04-23T10:06:01.212Z,2.40
2023-04-23T10:08:29.981Z,2.80
2023-04-23T10:11:06.636Z,4.00
2023-04-23T10:13:46.445Z,4.00
2023-04-23T10:16:21.775Z,4.00
2023-04-23T10:18:51.012Z,2.00
2023-04-23T10:21:19.068Z,2.80
2023-04-23T10:23:47.828Z,3.00
2023-04-23T10:26:15.584Z,2.00
2023-04-23T10:28:43.337Z,1.60
2023-04-23T10:31:11.235Z,3.20
2023-04-23T10:33:49.379Z,4.00
2023-04-23T10:36:25.821Z,2.00
2023-04-23T10:38:58.253Z,1.00
2023-04-23T10:41:28.313Z,2.00
2023-04-23T10:43:56.370Z,2.00
2023-04-23T10:46:24.508Z,2.00
2023-04-23T10:48:52.439Z,1.00
2023-04-23T10:53:59.731Z,2.00
2023-04-23T10:56:27.823Z,2.00
2023-04-23T10:58:56.320Z,4.00
2023-04-23T11:01:24.194Z,2.00
2023-04-23T11:03:52.304Z,1.00
2023-04-23T11:06:20.223Z,4.20
2023-04-23T11:08:48.863Z,2.00
2023-04-23T11:11:17.812Z,2.00
2023-04-23T11:13:45.565Z,2.00
2023-04-23T11:16:13.501Z,1.60
2023-04-23T11:18:41.490Z,2.00
2023-04-23T11:21:09.218Z,4.00
2023-04-23T11:23:37.931Z,4.00
2023-04-23T11:26:05.858Z,4.20
2023-04-23T11:28:33.681Z,2.00
2023-04-23T11:31:01.621Z,2.00
2023-04-23T11:33:29.624Z,1.60
2023-04-23T11:35:57.841Z,3.20
2023-04-23T11:38:25.709Z,2.00
2023-04-23T11:40:54.256Z,1.00
2023-04-23T11:43:22.894Z,2.40
2023-04-23T11:45:52.546Z,2.40
2023-04-23T11:48:20.715Z,2.00
2023-04-23T11:50:48.783Z,1.80
2023-04-23T11:53:16.879Z,1.40
2023-04-23T11:55:46.136Z,2.00
2023-04-23T11:58:14.242Z,2.40
2023-04-23T12:00:42.254Z,1.00
2023-04-23T12:03:10.286Z,2.00
2023-04-23T12:05:38.415Z,2.00
2023-04-23T12:08:06.690Z,2.00
2023-04-23T12:10:34.820Z,2.40
2023-04-23T12:13:02.576Z,4.00
2023-04-23T12:15:30.782Z,1.60
2023-04-23T12:17:58.779Z,1.40
2023-04-23T12:20:26.603Z,1.00
2023-04-23T12:22:55.177Z,0.60
2023-04-23T12:25:23.524Z,0.00
2023-04-23T12:27:51.563Z,0.00
2023-04-23T12:30:19.509Z,0.00
2023-04-23T12:32:47.486Z,0.00
2023-04-23T12:35:15.917Z,0.40
2023-04-23T12:37:44.358Z,0.00
2023-04-23T12:40:12.266Z,1.00
2023-04-23T12:42:40.200Z,0.00
2023-04-23T12:45:08.670Z,1.00
2023-04-23T12:47:37.195Z,0.20
2023-04-23T12:50:06.260Z,0.60
2023-04-23T12:52:34.108Z,0.00
2023-04-23T12:55:02.011Z,0.40
2023-04-23T12:57:30.025Z,1.80
2023-04-23T12:59:57.945Z,0.60
2023-04-23T13:02:26.454Z,1.40
2023-04-23T13:05:01.154Z,1.00
2023-04-23T13:07:29.416Z,1.80
2023-04-23T13:09:57.458Z,1.20
2023-04-23T13:12:27.297Z,0.20
2023-04-23T13:14:55.231Z,1.60
2023-04-23T13:17:23.447Z,1.00
2023-04-23T13:19:51.570Z,1.60
2023-04-23T13:22:19.387Z,1.00
2023-04-23T13:24:48.034Z,0.80
2023-04-23T13:27:15.985Z,0.00
2023-04-23T13:29:44.174Z,0.00
2023-04-23T13:32:12.466Z,0.40
2023-04-23T13:34:40.903Z,1.00
2023-04-23T13:37:09.647Z,1.40
2023-04-23T13:39:39.989Z,0.00
2023-04-23T13:42:10.209Z,0.00
2023-04-23T13:44:38.475Z,0.60
2023-04-23T13:47:06.334Z,0.00
2023-04-23T13:49:34.464Z,0.80
2023-04-23T13:52:07.256Z,0.20
2023-04-23T13:54:35.916Z,0.00
2023-04-23T13:57:04.122Z,0.00
2023-04-23T13:59:32.138Z,1.00
2023-04-23T14:02:00.498Z,0.00
2023-04-23T14:04:28.555Z,1.00
2023-04-23T14:06:56.486Z,0.00
2023-04-23T14:09:24.318Z,0.20
2023-04-23T14:11:52.213Z,0.00
2023-04-23T14:14:21.166Z,0.00
2023-04-23T14:16:49.822Z,0.20
2023-04-23T14:19:18.255Z,1.00
2023-04-23T14:21:46.165Z,1.00
2023-04-23T14:24:13.971Z,1.00
2023-04-23T14:29:14.212Z,1.00
2023-04-23T14:31:42.100Z,0.80
2023-04-23T14:34:10.061Z,0.60
2023-04-23T14:36:38.037Z,0.20
2023-04-23T14:39:08.088Z,0.00
2023-04-23T14:41:36.244Z,0.60
2023-04-23T14:44:04.213Z,0.00
2023-04-23T14:46:32.167Z,0.60
2023-04-23T14:49:00.105Z,0.00
2023-04-23T14:51:29.421Z,0.00
2023-04-23T14:53:57.426Z,1.00
2023-04-23T14:56:25.142Z,0.00
2023-04-23T14:58:52.978Z,1.00
2023-04-23T15:01:20.939Z,0.40
2023-04-23T15:03:49.467Z,0.80
2023-04-23T15:06:17.488Z,0.00
2023-04-23T15:08:45.360Z,0.60
2023-04-23T15:11:14.559Z,1.00
2023-04-23T15:13:42.602Z,2.00
2023-04-23T15:16:11.541Z,0.00
2023-04-23T15:18:39.383Z,1.00
2023-04-23T15:21:07.594Z,0.00
2023-04-23T15:23:35.356Z,1.00
2023-04-23T15:26:03.404Z,1.00
2023-04-23T15:28:32.202Z,0.40
2023-04-23T15:31:00.059Z,0.40
2023-04-23T15:33:27.972Z,1.00
2023-04-23T15:35:58.159Z,1.00
2023-04-23T15:38:27.549Z,3.00
2023-04-23T15:40:55.849Z,1.00
2023-04-23T15:43:24.112Z,2.00
2023-04-23T15:45:53.422Z,0.80
2023-04-23T15:48:21.422Z,1.00
2023-04-23T15:50:49.376Z,1.00
2023-04-23T15:53:17.757Z,1.00
2023-04-23T15:55:45.652Z,1.00
2023-04-23T15:58:13.532Z,0.20
2023-04-23T16:00:41.318Z,1.00
2023-04-23T16:03:09.377Z,0.80
2023-04-23T16:05:39.052Z,1.00
2023-04-23T16:08:06.893Z,0.40
2023-04-23T16:10:34.902Z,1.40
2023-04-23T16:13:02.849Z,0.00
2023-04-23T16:15:30.680Z,0.20
2023-04-23T16:18:00.361Z,1.00
2023-04-23T16:20:28.709Z,0.00
2023-04-23T16:22:56.499Z,0.20
2023-04-23T16:25:24.434Z,1.00
2023-04-23T16:27:52.791Z,1.00
2023-04-23T16:30:21.673Z,0.40
2023-04-23T16:32:49.751Z,0.00
2023-04-23T16:35:17.897Z,1.00
2023-04-23T16:37:45.730Z,0.00
2023-04-23T16:40:15.466Z,0.00
2023-04-23T16:42:44.074Z,0.00
2023-04-23T16:45:11.964Z,0.00
2023-04-23T16:47:39.917Z,1.00
2023-04-23T16:50:08.145Z,0.00
2023-04-23T16:52:36.063Z,0.00
2023-04-23T16:55:04.444Z,0.80
2023-04-23T16:57:32.726Z,0.00
2023-04-23T17:00:00.867Z,0.00
2023-04-23T17:02:29.192Z,0.60
2023-04-23T17:04:57.324Z,1.00
2023-04-23T17:07:25.322Z,0.00
2023-04-23T17:09:53.270Z,1.00
2023-04-23T17:12:22.064Z,0.00
2023-04-23T17:20:48.154Z,1.00
2023-04-23T17:23:16.091Z,0.00
2023-04-23T17:25:44.011Z,1.00
2023-04-23T17:28:11.942Z,1.00
2023-04-23T17:30:39.839Z,0.00
2023-04-23T17:33:10.222Z,1.00
2023-04-23T17:35:38.085Z,0.75
2023-04-23T17:38:05.939Z,1.00
2023-04-23T17:40:33.758Z,1.00
2023-04-23T17:43:01.948Z,0.50
2023-04-23T17:45:30.494Z,0.50
2023-04-23T17:47:58.409Z,1.00
2023-04-23T17:50:28.625Z,1.00
2023-04-23T17:52:56.440Z,0.00
2023-04-23T17:55:25.004Z,2.00
2023-04-23T17:57:53.869Z,2.00
2023-04-23T18:00:22.063Z,1.00
2023-04-23T18:02:50.127Z,2.00
2023-04-23T18:05:18.038Z,1.00
2023-04-23T18:07:45.897Z,0.50
2023-04-23T18:10:14.878Z,1.00
2023-04-23T18:12:42.868Z,1.00
2023-04-23T18:15:12.562Z,0.00
2023-04-23T18:17:42.324Z,1.00
2023-04-23T18:20:10.754Z,0.50
2023-04-23T18:22:39.151Z,1.00
2023-04-23T18:25:07.764Z,1.00
2023-04-23T18:27:35.850Z,0.00
2023-04-23T18:30:05.797Z,0.00
2023-04-23T18:32:34.770Z,0.00
2023-04-23T18:35:04.910Z,0.00
2023-04-23T18:37:33.232Z,0.00
2023-04-23T18:40:01.469Z,0.00
2023-04-23T18:42:29.398Z,1.00
2023-04-23T18:44:57.302Z,0.50
2023-04-23T18:47:25.175Z,0.50
2023-04-23T18:49:53.266Z,0.50
2023-04-23T18:52:21.213Z,0.00
2023-04-23T18:54:49.252Z,0.00
2023-04-23T18:57:17.150Z,0.00
2023-04-23T18:59:45.353Z,0.00
2023-04-23T19:02:21.444Z,0.25
2023-04-23T19:04:56.504Z,0.00
2023-04-23T19:07:24.418Z,0.00
2023-04-23T19:09:52.908Z,0.00
2023-04-23T19:12:20.813Z,0.75
2023-04-23T19:14:48.727Z,0.00
2023-04-23T19:17:18.634Z,0.00
2023-04-23T19:19:46.718Z,0.00
2023-04-23T19:22:15.087Z,0.00
2023-04-23T19:24:42.932Z,0.00
2023-04-23T19:27:10.954Z,0.00
2023-04-23T19:29:38.857Z,0.00
2023-04-23T19:32:06.913Z,0.00
2023-04-23T19:34:35.469Z,0.25
2023-04-23T19:37:03.480Z,0.00
2023-04-23T19:39:31.346Z,0.00
2023-04-23T19:41:59.239Z,0.00
2023-04-23T19:44:27.414Z,1.00
2023-04-23T19:46:56.057Z,0.00
2023-04-23T19:49:23.952Z,0.00
2023-04-23T19:51:51.770Z,0.00
2023-04-23T19:54:19.550Z,0.00
2023-04-23T19:56:47.515Z,0.00
2023-04-23T19:59:17.808Z,0.00
2023-04-23T20:01:45.614Z,0.00
2023-04-23T20:04:13.738Z,0.00
2023-04-23T20:06:42.009Z,0.00
2023-04-23T20:09:18.801Z,0.50
2023-04-23T20:11:46.868Z,0.00
2023-04-23T20:14:14.651Z,1.00
2023-04-23T20:16:42.608Z,0.00
2023-04-23T20:19:11.304Z,0.00
2023-04-23T20:21:40.055Z,0.00
2023-04-23T20:24:08.793Z,0.00
2023-04-23T20:26:36.611Z,0.00
2023-04-23T20:29:04.512Z,0.00
2023-04-23T20:31:32.513Z,0.00
2023-04-23T20:34:00.608Z,0.00
2023-04-23T20:36:31.678Z,0.00
2023-04-23T20:38:59.678Z,1.00
2023-04-23T20:41:27.416Z,0.00
2023-04-23T20:43:55.262Z,0.50
2023-04-23T20:46:24.152Z,0.00
2023-04-23T20:48:54.629Z,0.00
2023-04-23T20:51:22.316Z,0.00
2023-04-23T20:53:50.252Z,0.00
2023-04-23T20:56:18.017Z,0.00
2023-04-23T20:58:46.255Z,0.00
2023-04-23T21:01:14.743Z,0.00
2023-04-23T21:03:42.743Z,0.25
2023-04-23T21:06:10.735Z,0.00
2023-04-23T21:08:41.485Z,0.00
2023-04-23T21:11:11.959Z,1.00
2023-04-23T21:13:39.860Z,0.00
2023-04-23T21:16:07.843Z,0.00
2023-04-23T21:18:35.757Z,0.00
2023-04-23T21:21:03.552Z,0.00
2023-04-23T21:23:31.952Z,0.00
2023-04-23T21:26:00.106Z,0.00
2023-04-23T21:28:28.052Z,0.00
2023-04-23T21:30:55.843Z,0.00
2023-04-23T21:33:24.032Z,0.00
2023-04-23T21:35:51.954Z,0.00
2023-04-23T21:38:19.721Z,0.00
2023-04-23T21:40:47.436Z,0.00
2023-04-23T21:43:15.306Z,0.00
2023-04-23T21:45:43.014Z,0.00
2023-04-23T21:48:11.107Z,0.00
2023-04-23T21:50:39.266Z,0.00
2023-04-23T21:53:07.351Z,0.00
2023-04-23T21:55:35.446Z,0.00
2023-04-23T21:58:16.383Z,0.00
2023-04-23T22:00:46.149Z,0.00
2023-04-23T22:03:25.606Z,0.00
2023-04-23T22:06:02.910Z,0.00
2023-04-23T22:08:30.685Z,0.00
2023-04-23T22:10:59.540Z,0.00
2023-04-23T22:13:27.374Z,0.00
2023-04-23T22:15:57.482Z,0.00
2023-04-23T22:18:25.228Z,0.00
2023-04-23T22:20:53.245Z,0.00
2023-04-23T22:23:22.240Z,0.00
2023-04-23T22:25:49.961Z,0.00
2023-04-23T22:28:17.672Z,0.00
2023-04-23T22:30:45.430Z,0.00
2023-04-23T22:33:13.083Z,0.00
2023-04-23T22:35:41.196Z,0.00
2023-04-23T22:38:12.676Z,0.00
2023-04-23T22:40:40.322Z,0.00
2023-04-23T22:43:07.950Z,0.00
2023-04-23T22:45:35.891Z,0.00
2023-04-23T22:48:04.763Z,0.00
2023-04-23T22:50:32.500Z,0.00
2023-04-23T22:53:00.134Z,0.00
2023-04-23T22:55:27.782Z,0.00
2023-04-23T22:57:55.443Z,0.00
2023-04-23T23:00:24.908Z,0.00
2023-04-23T23:02:53.083Z,0.00
2023-04-23T23:05:21.176Z,0.00
2023-04-23T23:07:50.326Z,0.00
2023-04-23T23:10:17.902Z,0.00
2023-04-23T23:12:45.875Z,0.00
2023-04-23T23:15:13.505Z,0.00
2023-04-23T23:17:41.309Z,0.00
2023-04-23T23:20:09.367Z,0.00
2023-04-23T23:22:37.586Z,0.00
2023-04-23T23:25:06.980Z,0.00
2023-04-23T23:27:34.632Z,0.00
2023-04-23T23:30:05.816Z,0.00
2023-04-23T23:32:33.554Z,0.00
2023-04-23T23:35:01.562Z,0.00
2023-04-23T23:37:29.754Z,0.00
2023-04-23T23:39:57.336Z,0.00
2023-04-23T23:42:25.047Z,0.00
2023-04-23T23:44:52.904Z,0.00
2023-04-23T23:47:20.559Z,0.00
2023-04-23T23:49:48.873Z,0.00
2023-04-23T23:52:16.520Z,0.00
2023-04-23T23:54:44.092Z,0.00
2023-04-23T23:57:12.095Z,0.00
2023-04-23T23:59:39.777Z,0.00
